Texas General Land Office
 Texas General Land Office
 George P. Bush, Commissioner

 Oil Spill Prevention
 & Response

Texas Automated Buoy System
Real Time Ocean Observations
Supporting Oil Spill Prevention and
Response since 1995
Geochemical and Environmental Research Group

TABS Buoy F -- Texas Automated Buoy System

TABS Buoy F Conditions at 05/29/2017 21:30 UTC (05/29/2017 16:30 CDT)
28° 50.5500'N   94° 14.4960'W
AA3900 DCS - sensor depth 2m
Water Depth: 79 feet (24 meters)
Speed: 26.95 cm/s (0.52 kts) Direction: 124 °T (SE) Water Temp: 26°C (79 °F)
System Voltage: 13.3 V Signal Strength: -1.9 dB Ping Count: 141
  


IMPORTANT: Notice to Mariners


Today's Velocity Data (download)

   Date   |  Time  |   East |   North|   Speed|  Dir | WaterT |
          |  (UTC) |  (cm/s)|  (cm/s)|  (cm/s)| (°T) |  (°C)  |
==========+========+========+========+========+======+========+
05/29/2017 05:00:00   -23.45     4.61    23.90  281.1   26.6
05/29/2017 05:30:00   -17.69     4.78    18.32  285.1   26.6
05/29/2017 06:00:00   -14.40     2.87    14.68  281.3   26.6
05/29/2017 06:30:00   -10.08   -11.08    14.98  222.3   26.5
05/29/2017 07:00:00   -16.36   -15.81    22.75  226.0   26.4
05/29/2017 07:30:00   -20.04   -17.21    26.42  229.3   26.4
05/29/2017 08:00:00   -22.60   -15.50    27.40  235.6   26.4
05/29/2017 08:30:00   -26.22   -13.61    29.54  242.6   26.3
05/29/2017 09:00:00   -29.40    -7.66    30.38  255.4   26.3
05/29/2017 09:30:00   -34.00    -5.24    34.40  261.2   26.2
05/29/2017 10:00:00   -39.00    -1.56    39.03  267.7   26.2
05/29/2017 10:30:00   -43.07     7.49    43.72  279.9   26.2
05/29/2017 11:00:00   -33.58    12.60    35.87  290.6   26.2
05/29/2017 11:30:00   -25.63    15.00    29.70  300.3   26.2
05/29/2017 12:00:00   -28.95    23.47    37.27  309.0   26.2
05/29/2017 12:30:00   -28.17    23.45    36.65  309.8   26.3
05/29/2017 13:00:00   -19.11    28.04    33.93  325.7   26.4
05/29/2017 13:30:00   -12.56    24.67    27.68  333.0   26.3
05/29/2017 14:00:00    -7.91    21.26    22.68  339.6   26.3
05/29/2017 14:30:00    -3.05    15.76    16.05  349.0   26.3
05/29/2017 15:00:00    -1.11    13.77    13.81  355.4   26.2
05/29/2017 15:30:00     7.33    19.71    21.03   20.4   26.2
05/29/2017 16:00:00    11.68    14.67    18.75   38.5   26.2
05/29/2017 16:30:00    13.61    10.80    17.37   51.6   26.1
05/29/2017 17:00:00    12.18    10.37    16.00   49.6   26.1
05/29/2017 17:30:00     8.37    10.51    13.44   38.5   26.1
05/29/2017 18:00:00     8.43     8.99    12.32   43.2   26.1
05/29/2017 18:30:00    10.92     3.50    11.47   72.2   26.1
05/29/2017 19:00:00    15.22     2.04    15.36   82.4   26.1
05/29/2017 19:30:00    18.31     1.95    18.41   83.9   26.1
05/29/2017 20:00:00    17.64    -4.56    18.22  104.5   26.1
05/29/2017 20:30:00    18.23    -4.82    18.86  104.8   26.1
05/29/2017 21:00:00    24.87   -11.35    27.34  114.5   26.1
05/29/2017 21:30:00    22.30   -15.13    26.95  124.2   26.2



       
 

Today's Temperature - Salinity Data     (Download)


   Date   |  Time  |   Temp |   Cond |Salinity| Density|SoundVel|
          |  (UTC) |   (°C) | (ms/cm)|        | kg/m^3 |  (m/s) |
==========+========+========+========+========+========+========+
05/29/2017 05:00:00    26.57     4.86    30.62     0.00     0.00
05/29/2017 05:30:00    26.57     4.86    30.63     0.00     0.00
05/29/2017 06:00:00    26.55     4.86    30.63     0.00     0.00
05/29/2017 06:30:00    26.37     4.84    30.65     0.00     0.00
05/29/2017 07:00:00    26.39     4.84    30.65     0.00     0.00
05/29/2017 07:30:00    26.29     4.82    30.56     0.00     0.00
05/29/2017 08:00:00    26.31     4.82    30.51     0.00     0.00
05/29/2017 08:30:00    26.25     4.80    30.40     0.00     0.00
05/29/2017 09:00:00    26.20     4.78    30.32     0.00     0.00
05/29/2017 09:30:00    26.20     4.77    30.24     0.00     0.00
05/29/2017 10:00:00    26.17     4.77    30.23     0.00     0.00
05/29/2017 10:30:00    26.17     4.76    30.23     0.00     0.00
05/29/2017 11:00:00    26.14     4.78    30.39     0.00     0.00
05/29/2017 11:30:00    26.14     4.82    30.65     0.00     0.00
05/29/2017 12:00:00    26.22     4.88    30.98     0.00     0.00
05/29/2017 12:30:00    26.32     4.94    31.40     0.00     0.00
05/29/2017 13:00:00    26.31     4.97    31.62     0.00     0.00
05/29/2017 13:30:00    26.27     4.99    31.77     0.00     0.00
05/29/2017 14:00:00    26.26     5.00    31.88     0.00     0.00
05/29/2017 14:30:00    26.23     5.02    32.02     0.00     0.00
05/29/2017 15:00:00    26.18     5.04    32.15     0.00     0.00
05/29/2017 15:30:00    26.15     5.05    32.26     0.00     0.00
05/29/2017 16:00:00    26.11     5.05    32.33     0.00     0.00
05/29/2017 16:30:00    26.08     5.06    32.38     0.00     0.00
05/29/2017 17:00:00    26.03     5.06    32.42     0.00     0.00
05/29/2017 17:30:00    26.01     5.06    32.44     0.00     0.00
05/29/2017 18:00:00    26.01     5.06    32.47     0.00     0.00
05/29/2017 18:30:00    26.02     5.07    32.48     0.00     0.00
05/29/2017 19:00:00    26.03     5.07    32.49     0.00     0.00
05/29/2017 19:30:00    26.04     5.07    32.48     0.00     0.00
05/29/2017 20:00:00    26.03     5.06    32.46     0.00     0.00
05/29/2017 20:30:00    26.03     5.06    32.44     0.00     0.00
05/29/2017 21:00:00    26.05     5.06    32.38     0.00     0.00
05/29/2017 21:30:00    26.20     5.05    32.23     0.00     0.00